createdAt,value
2019-06-07T00:00:29.848Z,77.80
2019-06-07T00:02:41.540Z,78.50
2019-06-07T00:05:12.496Z,79.30
2019-06-07T00:07:40.665Z,80.60
2019-06-07T00:10:15.465Z,81.80
2019-06-07T00:12:39.992Z,81.30
2019-06-07T00:15:11.710Z,81.10
2019-06-07T00:17:38.963Z,81.80
2019-06-07T00:20:13.444Z,82.00
2019-06-07T00:22:39.181Z,82.40
2019-06-07T00:25:12.571Z,82.70
2019-06-07T00:27:39.274Z,81.70
2019-06-07T00:30:32.740Z,83.10
2019-06-07T00:32:40.059Z,82.60
2019-06-07T00:35:09.182Z,81.60
2019-06-07T00:37:37.803Z,81.10
2019-06-07T00:40:20.923Z,82.40
2019-06-07T00:42:38.766Z,81.90
2019-06-07T00:45:07.835Z,81.40
2019-06-07T00:47:36.711Z,81.10
2019-06-07T00:50:06.323Z,80.90
2019-06-07T00:55:06.685Z,82.00
2019-06-07T00:57:35.140Z,80.90
2019-06-07T01:00:05.221Z,80.80
2019-06-07T01:02:34.176Z,82.10
2019-06-07T01:05:02.716Z,82.00
2019-06-07T01:07:31.170Z,82.00
2019-06-07T01:09:59.620Z,81.60
2019-06-07T01:12:28.089Z,81.50
2019-06-07T01:14:56.538Z,80.80
2019-06-07T01:17:41.703Z,81.10
2019-06-07T01:19:58.244Z,80.40
2019-06-07T01:22:28.898Z,81.40
2019-06-07T01:24:56.897Z,80.70
2019-06-07T01:27:25.693Z,81.40
2019-06-07T01:29:54.156Z,81.10
2019-06-07T01:32:26.539Z,81.50
2019-06-07T01:34:53.091Z,81.70
2019-06-07T01:37:24.909Z,81.00
2019-06-07T01:39:52.108Z,79.50
2019-06-07T01:42:22.656Z,81.10
2019-06-07T01:44:50.691Z,82.00
2019-06-07T01:47:21.248Z,80.50
2019-06-07T01:49:49.640Z,80.90
2019-06-07T01:52:19.516Z,81.60
2019-06-07T01:54:58.059Z,81.70
2019-06-07T01:57:36.187Z,80.70
2019-06-07T01:59:48.600Z,79.40
2019-06-07T02:02:17.788Z,80.70
2019-06-07T02:04:48.051Z,80.20
2019-06-07T02:07:19.418Z,80.50
2019-06-07T02:09:47.395Z,80.20
2019-06-07T02:12:25.727Z,81.10
2019-06-07T02:14:46.676Z,81.20
2019-06-07T02:17:15.130Z,81.60
2019-06-07T02:19:43.621Z,81.00
2019-06-07T02:22:12.342Z,81.70
2019-06-07T02:24:40.805Z,82.60
2019-06-07T02:27:09.518Z,82.00
2019-06-07T02:29:38.337Z,82.10
2019-06-07T02:32:06.822Z,82.40
2019-06-07T02:34:39.222Z,82.10
2019-06-07T02:37:05.748Z,82.30
2019-06-07T02:39:40.047Z,83.60
2019-06-07T02:42:05.042Z,83.60
2019-06-07T02:44:38.904Z,82.60
2019-06-07T02:47:03.952Z,82.40
2019-06-07T02:49:39.596Z,83.00
2019-06-07T02:52:03.009Z,81.80
2019-06-07T02:54:39.200Z,81.70
2019-06-07T02:57:04.472Z,81.00
2019-06-07T02:59:57.466Z,81.00
2019-06-07T03:02:03.469Z,81.90
2019-06-07T03:04:40.565Z,82.80
2019-06-07T03:07:03.529Z,82.50
2019-06-07T03:09:35.027Z,83.30
2019-06-07T03:12:04.697Z,82.60
2019-06-07T03:14:35.547Z,82.10
2019-06-07T03:17:07.280Z,82.80
2019-06-07T03:19:41.849Z,82.70
2019-06-07T03:22:10.351Z,81.50
2019-06-07T03:24:42.015Z,82.90
2019-06-07T03:27:33.960Z,82.40
2019-06-07T03:29:41.321Z,82.40
2019-06-07T03:32:10.297Z,83.30
2019-06-07T03:34:42.879Z,82.40
2019-06-07T03:37:08.916Z,82.80
2019-06-07T03:39:40.977Z,84.20
2019-06-07T03:42:08.601Z,84.40
2019-06-07T03:44:40.641Z,84.60
2019-06-07T03:47:07.417Z,84.50
2019-06-07T03:49:41.729Z,84.80
2019-06-07T03:52:06.408Z,85.20
2019-06-07T03:54:38.395Z,86.20
2019-06-07T03:57:05.415Z,84.30
2019-06-07T03:59:38.581Z,84.30
2019-06-07T04:02:04.476Z,84.60
2019-06-07T04:04:37.824Z,84.90
2019-06-07T04:07:03.468Z,84.70
2019-06-07T04:09:35.658Z,83.70
2019-06-07T04:12:02.426Z,83.20
2019-06-07T04:14:31.333Z,82.40
2019-06-07T04:17:01.061Z,81.70
2019-06-07T04:19:31.465Z,82.40
2019-06-07T04:22:00.064Z,83.40
2019-06-07T04:24:28.885Z,83.90
2019-06-07T04:26:57.644Z,85.00
2019-06-07T04:29:32.949Z,84.70
2019-06-07T04:31:56.276Z,84.10
2019-06-07T04:34:25.047Z,84.50
2019-06-07T04:36:58.940Z,84.60
2019-06-07T04:39:25.081Z,84.10
2019-06-07T04:41:55.451Z,84.80
2019-06-07T04:44:26.165Z,85.00
2019-06-07T04:46:57.354Z,84.80
2019-06-07T04:49:26.302Z,84.90
2019-06-07T04:51:57.340Z,84.90
2019-06-07T04:54:26.439Z,86.10
2019-06-07T04:56:54.893Z,85.50
2019-06-07T05:00:00.916Z,85.80
2019-06-07T05:01:54.103Z,86.10
2019-06-07T05:04:22.840Z,86.10
2019-06-07T05:06:51.285Z,85.40
2019-06-07T05:09:19.745Z,85.70
2019-06-07T05:11:48.507Z,85.50
2019-06-07T05:14:17.300Z,86.30
2019-06-07T05:16:45.764Z,86.50
2019-06-07T05:19:14.605Z,86.60
2019-06-07T05:22:01.433Z,86.70
2019-06-07T05:24:13.270Z,85.80
2019-06-07T05:26:42.875Z,86.50
2019-06-07T05:29:11.557Z,86.10
2019-06-07T05:31:44.803Z,87.50
2019-06-07T05:34:11.143Z,87.00
2019-06-07T05:36:44.108Z,84.70
2019-06-07T05:39:09.766Z,84.80
2019-06-07T05:41:41.210Z,84.70
2019-06-07T05:44:13.074Z,86.00
2019-06-07T05:46:41.912Z,84.80
2019-06-07T05:49:09.806Z,85.70
2019-06-07T05:51:41.897Z,85.50
2019-06-07T05:54:08.786Z,86.30
2019-06-07T05:56:39.360Z,85.90
2019-06-07T05:59:07.436Z,85.70
2019-06-07T06:01:53.181Z,85.30
2019-06-07T06:04:06.479Z,85.20
2019-06-07T06:06:36.351Z,85.60
2019-06-07T06:09:13.689Z,85.90
2019-06-07T06:11:49.430Z,85.60
2019-06-07T06:14:08.552Z,85.80
2019-06-07T06:16:37.299Z,86.50
2019-06-07T06:19:06.340Z,84.80
2019-06-07T06:21:36.100Z,85.30
2019-06-07T06:24:04.703Z,85.50
2019-06-07T06:26:33.481Z,85.20
2019-06-07T06:29:01.920Z,85.50
2019-06-07T06:31:30.399Z,85.50
2019-06-07T06:33:59.259Z,86.60
2019-06-07T06:36:27.707Z,84.60
2019-06-07T06:38:56.144Z,83.20
2019-06-07T06:41:24.588Z,83.30
2019-06-07T06:43:53.037Z,84.30
2019-06-07T06:46:37.989Z,84.20
2019-06-07T06:48:55.359Z,83.90
2019-06-07T06:51:22.853Z,83.60
2019-06-07T06:53:52.603Z,84.80
2019-06-07T06:56:21.160Z,84.40
2019-06-07T06:59:33.092Z,83.60
2019-06-07T07:01:20.240Z,84.80
2019-06-07T07:04:09.192Z,84.30
2019-06-07T07:06:26.345Z,83.40
2019-06-07T07:08:53.391Z,83.30
2019-06-07T07:11:23.173Z,82.90
2019-06-07T07:13:56.333Z,84.10
2019-06-07T07:16:23.159Z,83.20
2019-06-07T07:18:54.427Z,83.50
2019-06-07T07:21:21.781Z,82.00
2019-06-07T07:24:14.578Z,82.70
2019-06-07T07:26:20.740Z,83.90
2019-06-07T07:28:51.756Z,83.30
2019-06-07T07:31:19.748Z,82.60
2019-06-07T07:36:37.399Z,81.40
2019-06-07T07:38:56.603Z,81.30
2019-06-07T07:41:19.416Z,82.10
2019-06-07T07:43:54.494Z,80.90
2019-06-07T07:46:28.992Z,81.20
2019-06-07T07:48:48.614Z,78.60
2019-06-07T07:51:17.927Z,78.70
2019-06-07T07:53:56.109Z,79.50
2019-06-07T07:56:16.853Z,78.20
2019-06-07T07:58:50.024Z,76.30
2019-06-07T08:01:15.904Z,76.20
2019-06-07T08:03:44.353Z,76.90
2019-06-07T08:06:13.150Z,77.10
2019-06-07T08:08:41.944Z,78.60
2019-06-07T08:11:10.404Z,79.10
2019-06-07T08:13:38.851Z,75.90
2019-06-07T08:16:13.581Z,76.00
2019-06-07T08:18:37.497Z,76.10
2019-06-07T08:21:23.706Z,76.20
2019-06-07T08:23:36.490Z,77.20
2019-06-07T08:26:05.042Z,75.20
2019-06-07T08:28:33.470Z,75.70
2019-06-07T08:31:06.950Z,74.20
2019-06-07T08:33:32.168Z,73.40
2019-06-07T08:36:17.137Z,73.20
2019-06-07T08:38:47.050Z,72.50
2019-06-07T08:41:11.073Z,70.80
2019-06-07T08:43:32.080Z,72.20
2019-06-07T08:46:06.854Z,72.40
2019-06-07T08:48:31.094Z,72.70
2019-06-07T08:51:06.599Z,72.80
2019-06-07T08:53:29.702Z,71.00
2019-06-07T08:56:05.805Z,73.00
2019-06-07T08:58:28.693Z,71.40
2019-06-07T09:01:03.856Z,71.50
2019-06-07T09:03:27.676Z,71.00
2019-06-07T09:05:59.458Z,69.40
2019-06-07T09:08:30.439Z,69.20
2019-06-07T09:10:59.436Z,69.10
2019-06-07T09:13:27.316Z,68.90
2019-06-07T09:15:58.799Z,68.50
2019-06-07T09:18:44.311Z,68.10
2019-06-07T09:20:58.187Z,68.80
2019-06-07T09:23:26.560Z,67.60
2019-06-07T09:26:04.572Z,67.00
2019-06-07T09:28:25.833Z,66.90
2019-06-07T09:30:57.094Z,67.40
2019-06-07T09:33:24.822Z,65.80
2019-06-07T09:35:53.666Z,66.90
2019-06-07T09:38:26.676Z,69.90
2019-06-07T09:40:52.381Z,65.60
2019-06-07T09:45:51.006Z,64.50
2019-06-07T09:49:01.324Z,64.10
2019-06-07T09:50:49.622Z,64.30
2019-06-07T09:53:22.566Z,65.30
2019-06-07T09:55:48.597Z,64.00
2019-06-07T09:58:50.105Z,65.10
2019-06-07T10:00:47.225Z,65.50
2019-06-07T10:03:21.348Z,66.00
2019-06-07T10:05:46.408Z,63.50
2019-06-07T10:09:00.994Z,62.40
2019-06-07T10:10:45.838Z,63.80
2019-06-07T10:13:14.550Z,66.00
2019-06-07T10:15:43.345Z,63.70
2019-06-07T10:18:12.246Z,65.30
2019-06-07T10:20:41.035Z,64.70
2019-06-07T10:23:10.116Z,62.90
2019-06-07T10:25:38.768Z,63.60
2019-06-07T10:28:08.250Z,61.90
2019-06-07T10:30:37.131Z,62.30
2019-06-07T10:33:06.876Z,59.30
2019-06-07T10:35:35.579Z,61.30
2019-06-07T10:38:04.741Z,63.90
2019-06-07T10:40:33.529Z,59.90
2019-06-07T10:43:02.910Z,63.50
2019-06-07T10:45:31.716Z,63.10
2019-06-07T10:48:01.531Z,61.70
2019-06-07T10:50:30.048Z,61.50
2019-06-07T10:52:58.824Z,60.10
2019-06-07T10:55:27.362Z,63.40
2019-06-07T10:57:55.811Z,59.60
2019-06-07T11:00:25.080Z,59.10
2019-06-07T11:02:55.316Z,60.50
2019-06-07T11:05:24.074Z,63.50
2019-06-07T11:07:52.914Z,60.20
2019-06-07T11:10:21.420Z,57.80
2019-06-07T11:12:49.870Z,57.50
2019-06-07T11:15:18.645Z,59.40
2019-06-07T11:17:47.110Z,61.80
2019-06-07T11:20:15.913Z,57.00
2019-06-07T11:22:44.374Z,57.60
2019-06-07T11:25:15.211Z,59.20
2019-06-07T11:27:43.707Z,59.00
2019-06-07T11:30:14.411Z,59.80
2019-06-07T11:32:43.310Z,61.30
2019-06-07T11:35:14.001Z,56.30
2019-06-07T11:37:43.357Z,56.20
2019-06-07T11:40:35.457Z,56.60
2019-06-07T11:42:43.007Z,57.10
2019-06-07T11:45:13.013Z,58.60
2019-06-07T11:47:41.695Z,57.10
2019-06-07T11:50:13.572Z,59.40
2019-06-07T11:52:46.147Z,58.30
2019-06-07T11:55:15.591Z,55.70
2019-06-07T11:57:44.124Z,55.90
2019-06-07T12:00:16.452Z,56.00
2019-06-07T12:02:45.762Z,55.70
2019-06-07T12:05:18.312Z,56.70
2019-06-07T12:07:45.329Z,55.10
2019-06-07T12:10:16.564Z,57.90
2019-06-07T12:12:44.509Z,52.50
2019-06-07T12:15:15.001Z,53.20
2019-06-07T12:17:43.985Z,55.40
2019-06-07T12:20:14.593Z,54.20
2019-06-07T12:22:43.210Z,54.50
2019-06-07T12:25:12.471Z,55.40
2019-06-07T12:27:42.537Z,52.00
2019-06-07T12:30:18.099Z,54.90
2019-06-07T12:32:41.264Z,53.10
2019-06-07T12:35:11.353Z,54.70
2019-06-07T12:37:44.290Z,53.60
2019-06-07T12:40:10.621Z,52.10
2019-06-07T12:42:40.204Z,54.40
2019-06-07T12:45:09.594Z,56.80
2019-06-07T12:47:38.034Z,52.30
2019-06-07T12:50:07.254Z,53.00
2019-06-07T12:52:36.096Z,54.50
2019-06-07T12:55:08.603Z,53.80
2019-06-07T12:57:37.051Z,56.40
2019-06-07T13:00:10.417Z,51.80
2019-06-07T13:02:38.876Z,54.30
2019-06-07T13:05:09.482Z,52.10
2019-06-07T13:07:37.953Z,51.40
2019-06-07T13:10:07.770Z,50.90
2019-06-07T13:12:36.248Z,53.00
2019-06-07T13:15:07.001Z,55.20
2019-06-07T13:17:35.977Z,52.50
2019-06-07T13:20:06.584Z,56.50
2019-06-07T13:22:35.157Z,53.00
2019-06-07T13:25:05.585Z,53.90
2019-06-07T13:27:34.097Z,55.40
2019-06-07T13:30:09.746Z,51.90
2019-06-07T13:32:33.100Z,53.90
2019-06-07T13:35:01.854Z,51.70
2019-06-07T13:37:30.289Z,46.70
2019-06-07T13:39:58.759Z,49.30
2019-06-07T13:42:27.197Z,48.70
2019-06-07T13:44:55.913Z,50.30
2019-06-07T13:47:25.348Z,51.30
2019-06-07T13:49:55.172Z,49.40
2019-06-07T13:52:24.041Z,49.60
2019-06-07T13:54:52.545Z,49.30
2019-06-07T13:57:22.233Z,51.60
2019-06-07T13:59:50.997Z,48.00
2019-06-07T14:02:20.872Z,49.30
2019-06-07T14:04:50.047Z,44.00
2019-06-07T14:07:19.090Z,42.40
2019-06-07T14:09:48.132Z,45.60
2019-06-07T14:12:16.569Z,45.10
2019-06-07T14:14:45.017Z,44.40
2019-06-07T14:17:13.448Z,43.90
2019-06-07T14:19:42.184Z,44.90
2019-06-07T14:22:10.612Z,42.60
2019-06-07T14:24:39.086Z,42.00
2019-06-07T14:27:07.534Z,38.10
2019-06-07T14:29:38.187Z,41.60
2019-06-07T14:32:07.971Z,40.20
2019-06-07T14:34:36.546Z,37.90
2019-06-07T14:37:06.632Z,37.40
2019-06-07T14:39:35.389Z,36.30
2019-06-07T14:42:10.025Z,34.90
2019-06-07T14:44:34.715Z,32.90
2019-06-07T14:47:03.511Z,34.00
2019-06-07T14:49:32.827Z,32.60
2019-06-07T14:52:01.833Z,31.80
2019-06-07T14:54:32.149Z,31.40
2019-06-07T14:57:03.126Z,32.00
2019-06-07T14:59:30.691Z,30.90
2019-06-07T15:01:59.382Z,29.50
2019-06-07T15:04:28.635Z,29.90
2019-06-07T15:06:57.140Z,31.80
2019-06-07T15:09:26.915Z,31.00
2019-06-07T15:11:56.381Z,34.50
2019-06-07T15:14:24.909Z,31.90
2019-06-07T15:16:53.642Z,35.20
2019-06-07T15:19:24.194Z,35.10
2019-06-07T15:21:52.245Z,35.10
2019-06-07T15:24:21.033Z,31.70
2019-06-07T15:26:49.841Z,28.10
2019-06-07T15:29:18.298Z,28.20
2019-06-07T15:31:46.824Z,28.30
2019-06-07T15:34:15.241Z,27.90
2019-06-07T15:36:43.979Z,27.10
2019-06-07T15:39:12.770Z,27.50
2019-06-07T15:41:41.204Z,29.00
2019-06-07T15:44:09.658Z,26.20
2019-06-07T15:46:38.177Z,27.60
2019-06-07T15:49:06.727Z,26.80
2019-06-07T15:51:36.569Z,28.60
2019-06-07T15:54:05.544Z,28.20
2019-06-07T15:56:34.636Z,26.60
2019-06-07T15:59:03.417Z,25.30
2019-06-07T16:01:33.318Z,25.00
2019-06-07T16:04:02.145Z,27.50
2019-06-07T16:06:32.090Z,24.20
2019-06-07T16:09:01.058Z,24.20
2019-06-07T16:11:30.240Z,25.20
2019-06-07T16:13:58.941Z,24.30
2019-06-07T16:16:27.392Z,25.60
2019-06-07T16:18:56.119Z,26.50
2019-06-07T16:21:24.569Z,25.30
2019-06-07T16:23:53.295Z,25.20
2019-06-07T16:26:21.729Z,24.70
2019-06-07T16:28:50.585Z,25.00
2019-06-07T16:31:19.263Z,24.50
2019-06-07T16:33:48.082Z,24.10
2019-06-07T16:36:16.859Z,25.10
2019-06-07T16:38:45.312Z,25.30
2019-06-07T16:41:13.748Z,25.10
2019-06-07T16:43:42.699Z,25.00
2019-06-07T16:46:11.219Z,26.10
2019-06-07T16:48:40.828Z,26.50
2019-06-07T16:51:09.460Z,27.70
2019-06-07T16:53:38.319Z,27.30
2019-06-07T16:56:07.101Z,26.90
2019-06-07T16:58:35.893Z,28.40
2019-06-07T17:01:04.785Z,28.00
2019-06-07T17:03:33.216Z,27.40
2019-06-07T17:06:01.701Z,28.50
2019-06-07T17:08:30.174Z,29.10
2019-06-07T17:10:58.642Z,30.00
2019-06-07T17:13:33.508Z,29.30
2019-06-07T17:15:58.056Z,30.00
2019-06-07T17:18:26.854Z,30.20
2019-06-07T17:20:55.288Z,32.30
2019-06-07T17:23:23.754Z,34.70
2019-06-07T17:25:52.312Z,36.90
2019-06-07T17:28:20.779Z,38.00
2019-06-07T17:30:50.306Z,39.00
2019-06-07T17:33:19.301Z,38.20
2019-06-07T17:35:48.558Z,38.20
2019-06-07T17:38:17.210Z,38.30
2019-06-07T17:40:46.999Z,39.60
2019-06-07T17:43:15.587Z,39.80
2019-06-07T17:45:45.285Z,39.40
2019-06-07T17:48:14.450Z,39.90
2019-06-07T17:50:43.696Z,40.20
2019-06-07T17:53:12.378Z,41.00
2019-06-07T17:55:42.082Z,41.20
2019-06-07T17:58:10.664Z,41.70
2019-06-07T18:00:51.015Z,42.60
2019-06-07T18:03:20.381Z,44.60
2019-06-07T18:05:49.740Z,45.10
2019-06-07T18:08:18.457Z,46.10
2019-06-07T18:10:47.869Z,45.90
2019-06-07T18:13:16.573Z,46.60
2019-06-07T18:15:53.276Z,47.20
2019-06-07T18:18:18.106Z,47.30
2019-06-07T18:20:47.152Z,47.20
2019-06-07T18:23:16.452Z,47.30
2019-06-07T18:25:46.418Z,48.20
2019-06-07T18:28:15.466Z,47.00
2019-06-07T18:30:44.370Z,44.50
2019-06-07T18:33:12.802Z,44.60
2019-06-07T18:35:41.251Z,44.30
2019-06-07T18:38:10.903Z,44.70
2019-06-07T18:40:40.647Z,45.90
2019-06-07T18:43:09.140Z,45.10
2019-06-07T18:45:37.956Z,45.80
2019-06-07T18:48:06.943Z,45.80
2019-06-07T18:50:36.285Z,47.00
2019-06-07T18:53:05.453Z,46.80
2019-06-07T18:55:33.960Z,47.30
2019-06-07T18:58:02.837Z,47.50
2019-06-07T19:00:32.556Z,48.00
2019-06-07T19:03:01.005Z,48.10
2019-06-07T19:05:29.723Z,48.70
2019-06-07T19:07:59.945Z,50.00
2019-06-07T19:10:28.973Z,49.60
2019-06-07T19:12:57.757Z,50.30
2019-06-07T19:15:26.821Z,50.40
2019-06-07T19:17:56.135Z,51.20
2019-06-07T19:20:25.151Z,50.40
2019-06-07T19:22:54.184Z,50.70
2019-06-07T19:25:22.860Z,51.60
2019-06-07T19:27:52.774Z,52.20
2019-06-07T19:30:21.501Z,51.90
2019-06-07T19:32:51.403Z,52.50
2019-06-07T19:35:20.540Z,52.90
2019-06-07T19:37:49.039Z,53.60
2019-06-07T19:40:17.610Z,53.30
2019-06-07T19:42:46.332Z,54.00
2019-06-07T19:45:29.699Z,53.10
2019-06-07T19:47:47.205Z,53.80
2019-06-07T19:50:16.870Z,53.60
2019-06-07T19:52:45.710Z,53.40
2019-06-07T19:55:14.418Z,52.40
2019-06-07T19:57:42.916Z,52.30
2019-06-07T20:00:14.637Z,53.40
2019-06-07T20:02:43.341Z,53.60
2019-06-07T20:05:15.961Z,53.10
2019-06-07T20:07:44.477Z,52.80
2019-06-07T20:10:15.234Z,53.20
2019-06-07T20:12:43.674Z,53.10
2019-06-07T20:15:27.948Z,53.70
2019-06-07T20:17:43.909Z,53.50
2019-06-07T20:20:12.527Z,53.90
2019-06-07T20:22:41.031Z,54.40
2019-06-07T20:25:11.530Z,53.80
2019-06-07T20:27:39.967Z,54.70
2019-06-07T20:30:09.565Z,54.50
2019-06-07T20:32:37.997Z,54.00
2019-06-07T20:35:08.303Z,54.00
2019-06-07T20:37:37.406Z,53.60
2019-06-07T20:40:22.806Z,54.00
2019-06-07T20:42:39.569Z,54.20
2019-06-07T20:45:08.778Z,54.80
2019-06-07T20:47:37.234Z,55.40
2019-06-07T20:50:09.232Z,54.50
2019-06-07T20:52:37.776Z,55.30
2019-06-07T20:55:07.215Z,56.30
2019-06-07T20:57:35.754Z,54.50
2019-06-07T21:00:20.417Z,55.00
2019-06-07T21:02:40.028Z,55.40
2019-06-07T21:05:09.955Z,55.60
2019-06-07T21:07:38.720Z,55.70
2019-06-07T21:10:10.805Z,55.60
2019-06-07T21:12:39.827Z,56.10
2019-06-07T21:15:13.791Z,56.30
2019-06-07T21:17:39.306Z,56.60
2019-06-07T21:20:13.655Z,55.60
2019-06-07T21:22:40.020Z,55.10
2019-06-07T21:25:09.702Z,54.90
2019-06-07T21:27:38.631Z,54.90
2019-06-07T21:30:11.607Z,55.60
2019-06-07T21:32:40.281Z,55.90
2019-06-07T21:35:10.195Z,56.00
2019-06-07T21:37:39.262Z,55.80
2019-06-07T21:40:08.382Z,55.50
2019-06-07T21:42:37.333Z,55.00
2019-06-07T21:45:07.893Z,55.10
2019-06-07T21:47:36.898Z,54.70
2019-06-07T21:50:10.613Z,54.10
2019-06-07T21:52:39.664Z,53.60
2019-06-07T21:55:09.119Z,53.70
2019-06-07T21:57:38.984Z,53.90
2019-06-07T22:00:14.852Z,52.50
2019-06-07T22:02:43.319Z,52.10
2019-06-07T22:05:12.227Z,53.80
2019-06-07T22:07:40.665Z,52.60
2019-06-07T22:10:10.065Z,53.10
2019-06-07T22:12:38.711Z,53.50
2019-06-07T22:15:28.504Z,52.50
2019-06-07T22:17:38.563Z,52.70
2019-06-07T22:20:08.479Z,52.80
2019-06-07T22:22:37.168Z,54.10
2019-06-07T22:25:07.071Z,53.00
2019-06-07T22:27:35.560Z,52.80
2019-06-07T22:30:08.270Z,52.80
2019-06-07T22:32:37.180Z,53.00
2019-06-07T22:35:06.772Z,54.20
2019-06-07T22:37:35.746Z,53.80
2019-06-07T22:40:10.535Z,53.10
2019-06-07T22:42:39.279Z,53.30
2019-06-07T22:45:10.655Z,53.10
2019-06-07T22:47:38.914Z,54.20
2019-06-07T22:50:08.744Z,53.90
2019-06-07T22:52:37.583Z,53.90
2019-06-07T22:55:07.856Z,54.10
2019-06-07T22:57:54.122Z,54.80
2019-06-07T23:00:23.530Z,54.10
2019-06-07T23:02:51.975Z,54.50
2019-06-07T23:05:20.428Z,55.00
2019-06-07T23:07:48.920Z,54.50
2019-06-07T23:10:17.633Z,55.00
2019-06-07T23:12:46.377Z,54.90
2019-06-07T23:15:15.491Z,54.90
2019-06-07T23:17:44.367Z,54.80
2019-06-07T23:20:13.775Z,54.60
2019-06-07T23:22:42.566Z,54.30
2019-06-07T23:25:12.258Z,54.70
2019-06-07T23:27:41.275Z,54.00
2019-06-07T23:30:10.774Z,54.30
2019-06-07T23:32:39.277Z,54.30
2019-06-07T23:35:08.785Z,55.10
2019-06-07T23:37:37.236Z,55.10
2019-06-07T23:40:06.958Z,54.60
2019-06-07T23:42:35.432Z,54.90
2019-06-07T23:45:04.710Z,54.40
2019-06-07T23:47:33.468Z,54.40
2019-06-07T23:50:01.939Z,54.70
2019-06-07T23:52:30.751Z,54.20
2019-06-07T23:54:59.193Z,54.00
2019-06-07T23:57:27.634Z,54.50
2019-06-07T23:59:56.408Z,53.80
